sensor_id;sensor_type;location;lat;lon;timestamp;pressure;altitude;pressure_sealevel;temperature;humidity
4598;BME280;62772;48.646;8.906;2023-05-08T00:03:38;96551.84;;;13.17;100.00
4598;BME280;62772;48.646;8.906;2023-05-08T00:08:39;96542.25;;;13.07;100.00
4598;BME280;62772;48.646;8.906;2023-05-08T00:13:41;96547.56;;;13.24;100.00
4598;BME280;62772;48.646;8.906;2023-05-08T00:18:42;96542.50;;;13.32;100.00
4598;BME280;62772;48.646;8.906;2023-05-08T00:23:42;96542.78;;;13.48;100.00
4598;BME280;62772;48.646;8.906;2023-05-08T00:28:43;96546.88;;;13.54;100.00
4598;BME280;62772;48.646;8.906;2023-05-08T00:33:44;96543.16;;;13.67;100.00
4598;BME280;62772;48.646;8.906;2023-05-08T00:38:44;96549.75;;;13.40;100.00
4598;BME280;62772;48.646;8.906;2023-05-08T00:43:45;96548.63;;;13.50;100.00
4598;BME280;62772;48.646;8.906;2023-05-08T00:48:45;96548.81;;;13.74;100.00
4598;BME280;62772;48.646;8.906;2023-05-08T00:53:46;96549.03;;;13.60;100.00
4598;BME280;62772;48.646;8.906;2023-05-08T00:58:47;96553.69;;;13.42;100.00
4598;BME280;62772;48.646;8.906;2023-05-08T01:03:47;96556.91;;;13.66;100.00
4598;BME280;62772;48.646;8.906;2023-05-08T01:08:48;96555.06;;;13.57;100.00
4598;BME280;62772;48.646;8.906;2023-05-08T01:14:20;96557.84;;;13.70;100.00
4598;BME280;62772;48.646;8.906;2023-05-08T01:19:54;96548.81;;;13.74;100.00
4598;BME280;62772;48.646;8.906;2023-05-08T01:36:24;96556.59;;;13.20;100.00
4598;BME280;62772;48.646;8.906;2023-05-08T01:41:28;96558.47;;;13.19;100.00
4598;BME280;62772;48.646;8.906;2023-05-08T01:46:32;96558.53;;;12.93;100.00
4598;BME280;62772;48.646;8.906;2023-05-08T01:51:40;96558.72;;;12.88;100.00
4598;BME280;62772;48.646;8.906;2023-05-08T01:56:44;96561.56;;;12.83;100.00
4598;BME280;62772;48.646;8.906;2023-05-08T02:01:51;96572.88;;;12.97;100.00
4598;BME280;62772;48.646;8.906;2023-05-08T02:06:54;96569.47;;;13.44;100.00
4598;BME280;62772;48.646;8.906;2023-05-08T02:11:58;96565.94;;;12.96;100.00
4598;BME280;62772;48.646;8.906;2023-05-08T02:17:00;96570.25;;;12.80;100.00
4598;BME280;62772;48.646;8.906;2023-05-08T02:22:02;96572.00;;;12.67;100.00
4598;BME280;62772;48.646;8.906;2023-05-08T02:27:04;96570.41;;;12.75;100.00
4598;BME280;62772;48.646;8.906;2023-05-08T02:32:07;96574.66;;;12.76;100.00
4598;BME280;62772;48.646;8.906;2023-05-08T02:37:09;96574.97;;;12.83;100.00
4598;BME280;62772;48.646;8.906;2023-05-08T02:42:09;96571.47;;;12.91;100.00
4598;BME280;62772;48.646;8.906;2023-05-08T02:47:47;96569.66;;;13.30;100.00
4598;BME280;62772;48.646;8.906;2023-05-08T02:52:53;96566.97;;;13.39;100.00
4598;BME280;62772;48.646;8.906;2023-05-08T02:58:19;96573.94;;;13.22;100.00
4598;BME280;62772;48.646;8.906;2023-05-08T03:08:28;96568.34;;;12.89;100.00
4598;BME280;62772;48.646;8.906;2023-05-08T03:13:31;96567.53;;;13.06;100.00
4598;BME280;62772;48.646;8.906;2023-05-08T03:18:35;96557.41;;;13.12;100.00
4598;BME280;62772;48.646;8.906;2023-05-08T03:23:41;96556.94;;;13.10;100.00
4598;BME280;62772;48.646;8.906;2023-05-08T03:28:42;96555.56;;;12.77;100.00
4598;BME280;62772;48.646;8.906;2023-05-08T03:33:44;96568.53;;;12.49;100.00
4598;BME280;62772;48.646;8.906;2023-05-08T03:38:46;96571.03;;;12.63;100.00
4598;BME280;62772;48.646;8.906;2023-05-08T03:43:48;96569.16;;;12.55;100.00
4598;BME280;62772;48.646;8.906;2023-05-08T03:48:50;96574.84;;;12.44;100.00
4598;BME280;62772;48.646;8.906;2023-05-08T03:53:53;96571.53;;;12.47;100.00
4598;BME280;62772;48.646;8.906;2023-05-08T03:59:08;96583.47;;;12.06;100.00
4598;BME280;62772;48.646;8.906;2023-05-08T04:04:31;96584.66;;;11.91;100.00
4598;BME280;62772;48.646;8.906;2023-05-08T04:15:06;96607.41;;;12.03;100.00
4598;BME280;62772;48.646;8.906;2023-05-08T04:20:12;96615.00;;;12.36;100.00
4598;BME280;62772;48.646;8.906;2023-05-08T04:25:16;96618.78;;;12.43;100.00
4598;BME280;62772;48.646;8.906;2023-05-08T04:30:18;96618.47;;;12.62;100.00
4598;BME280;62772;48.646;8.906;2023-05-08T04:35:19;96599.84;;;13.10;100.00
4598;BME280;62772;48.646;8.906;2023-05-08T04:40:21;96596.16;;;13.32;100.00
4598;BME280;62772;48.646;8.906;2023-05-08T04:45:22;96600.13;;;13.17;100.00
4598;BME280;62772;48.646;8.906;2023-05-08T04:50:23;96601.22;;;13.24;100.00
4598;BME280;62772;48.646;8.906;2023-05-08T04:55:24;96604.34;;;13.27;100.00
4598;BME280;62772;48.646;8.906;2023-05-08T05:00:24;96606.72;;;13.28;100.00
4598;BME280;62772;48.646;8.906;2023-05-08T05:05:25;96617.03;;;13.09;100.00
4598;BME280;62772;48.646;8.906;2023-05-08T05:10:26;96624.31;;;12.38;100.00
4598;BME280;62772;48.646;8.906;2023-05-08T05:15:27;96625.53;;;12.23;100.00
4598;BME280;62772;48.646;8.906;2023-05-08T05:20:28;96639.28;;;12.65;100.00
4598;BME280;62772;48.646;8.906;2023-05-08T05:25:28;96633.75;;;12.88;100.00
4598;BME280;62772;48.646;8.906;2023-05-08T05:30:29;96625.38;;;13.07;100.00
4598;BME280;62772;48.646;8.906;2023-05-08T05:35:30;96636.75;;;12.86;100.00
4598;BME280;62772;48.646;8.906;2023-05-08T05:40:31;96629.97;;;13.06;100.00
4598;BME280;62772;48.646;8.906;2023-05-08T05:45:31;96632.94;;;13.14;100.00
4598;BME280;62772;48.646;8.906;2023-05-08T05:50:32;96641.63;;;13.11;100.00
4598;BME280;62772;48.646;8.906;2023-05-08T05:55:33;96635.13;;;13.29;100.00
4598;BME280;62772;48.646;8.906;2023-05-08T06:00:35;96636.75;;;12.86;100.00
4598;BME280;62772;48.646;8.906;2023-05-08T06:05:36;96639.44;;;13.13;100.00
4598;BME280;62772;48.646;8.906;2023-05-08T06:10:37;96643.03;;;13.34;100.00
4598;BME280;62772;48.646;8.906;2023-05-08T06:15:37;96643.34;;;13.15;100.00
4598;BME280;62772;48.646;8.906;2023-05-08T06:20:38;96650.47;;;13.02;100.00
4598;BME280;62772;48.646;8.906;2023-05-08T06:25:39;96643.34;;;13.41;100.00
4598;BME280;62772;48.646;8.906;2023-05-08T06:30:40;96644.56;;;13.53;100.00
4598;BME280;62772;48.646;8.906;2023-05-08T06:35:40;96655.16;;;13.49;100.00
4598;BME280;62772;48.646;8.906;2023-05-08T06:40:44;96653.91;;;13.47;100.00
4598;BME280;62772;48.646;8.906;2023-05-08T06:45:45;96656.91;;;13.45;100.00
4598;BME280;62772;48.646;8.906;2023-05-08T06:50:45;96651.34;;;13.50;100.00
4598;BME280;62772;48.646;8.906;2023-05-08T06:55:47;96648.34;;;13.52;100.00
4598;BME280;62772;48.646;8.906;2023-05-08T07:00:47;96652.97;;;13.34;100.00
4598;BME280;62772;48.646;8.906;2023-05-08T07:05:48;96657.34;;;13.47;100.00
4598;BME280;62772;48.646;8.906;2023-05-08T07:10:48;96658.56;;;13.67;100.00
4598;BME280;62772;48.646;8.906;2023-05-08T07:15:49;96654.88;;;13.81;100.00
4598;BME280;62772;48.646;8.906;2023-05-08T07:20:50;96659.00;;;13.78;100.00
4598;BME280;62772;48.646;8.906;2023-05-08T07:25:50;96659.47;;;13.80;100.00
4598;BME280;62772;48.646;8.906;2023-05-08T07:30:51;96655.78;;;13.93;100.00
4598;BME280;62772;48.646;8.906;2023-05-08T07:35:51;96657.66;;;14.02;100.00
4598;BME280;62772;48.646;8.906;2023-05-08T07:40:52;96654.81;;;13.98;100.00
4598;BME280;62772;48.646;8.906;2023-05-08T07:45:56;96658.88;;;14.04;100.00
4598;BME280;62772;48.646;8.906;2023-05-08T07:50:57;96660.91;;;14.16;100.00
4598;BME280;62772;48.646;8.906;2023-05-08T07:55:57;96660.09;;;14.15;100.00
4598;BME280;62772;48.646;8.906;2023-05-08T08:00:58;96667.34;;;14.24;100.00
4598;BME280;62772;48.646;8.906;2023-05-08T08:05:58;96673.44;;;14.33;100.00
4598;BME280;62772;48.646;8.906;2023-05-08T08:10:59;96668.34;;;14.40;100.00
4598;BME280;62772;48.646;8.906;2023-05-08T08:16:00;96664.47;;;14.50;100.00
4598;BME280;62772;48.646;8.906;2023-05-08T08:21:04;96670.78;;;14.54;100.00
4598;BME280;62772;48.646;8.906;2023-05-08T08:26:04;96677.38;;;14.57;100.00
4598;BME280;62772;48.646;8.906;2023-05-08T08:31:05;96679.75;;;14.58;100.00
4598;BME280;62772;48.646;8.906;2023-05-08T08:36:11;96683.28;;;14.50;100.00
4598;BME280;62772;48.646;8.906;2023-05-08T08:41:12;96673.84;;;14.44;100.00
4598;BME280;62772;48.646;8.906;2023-05-08T08:46:15;96674.91;;;14.51;100.00
4598;BME280;62772;48.646;8.906;2023-05-08T08:51:25;96679.88;;;14.41;100.00
4598;BME280;62772;48.646;8.906;2023-05-08T08:56:28;96680.25;;;14.30;100.00
4598;BME280;62772;48.646;8.906;2023-05-08T09:01:32;96676.59;;;14.35;100.00
4598;BME280;62772;48.646;8.906;2023-05-08T09:06:36;96684.88;;;14.51;100.00
4598;BME280;62772;48.646;8.906;2023-05-08T09:11:38;96686.53;;;14.05;100.00
4598;BME280;62772;48.646;8.906;2023-05-08T09:16:39;96674.47;;;14.11;100.00
4598;BME280;62772;48.646;8.906;2023-05-08T09:21:40;96680.47;;;14.46;100.00
4598;BME280;62772;48.646;8.906;2023-05-08T09:26:41;96684.38;;;14.49;100.00
4598;BME280;62772;48.646;8.906;2023-05-08T09:31:44;96686.75;;;14.50;100.00
4598;BME280;62772;48.646;8.906;2023-05-08T09:36:45;96694.69;;;14.47;100.00
4598;BME280;62772;48.646;8.906;2023-05-08T09:42:02;96693.78;;;14.43;100.00
4598;BME280;62772;48.646;8.906;2023-05-08T09:47:11;96698.47;;;14.46;100.00
4598;BME280;62772;48.646;8.906;2023-05-08T09:52:14;96706.94;;;14.36;100.00
4598;BME280;62772;48.646;8.906;2023-05-08T09:57:15;96708.78;;;14.44;100.00
4598;BME280;62772;48.646;8.906;2023-05-08T10:02:16;96713.50;;;14.47;100.00
4598;BME280;62772;48.646;8.906;2023-05-08T10:07:29;96720.94;;;14.11;100.00
4598;BME280;62772;48.646;8.906;2023-05-08T10:12:30;96719.97;;;14.46;100.00
4598;BME280;62772;48.646;8.906;2023-05-08T10:17:36;96714.75;;;14.49;100.00
4598;BME280;62772;48.646;8.906;2023-05-08T10:22:42;96716.94;;;14.56;100.00
4598;BME280;62772;48.646;8.906;2023-05-08T10:27:58;96716.88;;;14.65;100.00
4598;BME280;62772;48.646;8.906;2023-05-08T10:33:08;96715.50;;;14.59;100.00
4598;BME280;62772;48.646;8.906;2023-05-08T10:38:10;96717.38;;;14.58;100.00
4598;BME280;62772;48.646;8.906;2023-05-08T10:43:11;96709.03;;;14.60;100.00
4598;BME280;62772;48.646;8.906;2023-05-08T10:53:49;96703.94;;;14.58;100.00
4598;BME280;62772;48.646;8.906;2023-05-08T10:58:55;96695.59;;;14.60;100.00
4598;BME280;62772;48.646;8.906;2023-05-08T11:03:56;96695.66;;;14.72;100.00
4598;BME280;62772;48.646;8.906;2023-05-08T11:08:57;96696.03;;;14.62;100.00
4598;BME280;62772;48.646;8.906;2023-05-08T11:14:09;96695.88;;;14.88;100.00
4598;BME280;62772;48.646;8.906;2023-05-08T11:19:18;96695.09;;;14.87;100.00
4598;BME280;62772;48.646;8.906;2023-05-08T11:24:33;96691.53;;;14.96;100.00
4598;BME280;62772;48.646;8.906;2023-05-08T11:29:33;96688.97;;;14.99;100.00
4598;BME280;62772;48.646;8.906;2023-05-08T11:39:41;96680.75;;;15.17;100.00
4598;BME280;62772;48.646;8.906;2023-05-08T11:44:42;96692.78;;;15.19;100.00
4598;BME280;62772;48.646;8.906;2023-05-08T11:49:42;96681.47;;;15.26;100.00
4598;BME280;62772;48.646;8.906;2023-05-08T11:54:43;96681.03;;;15.36;100.00
4598;BME280;62772;48.646;8.906;2023-05-08T11:59:48;96674.41;;;15.00;100.00
4598;BME280;62772;48.646;8.906;2023-05-08T12:04:49;96670.31;;;15.49;100.00
4598;BME280;62772;48.646;8.906;2023-05-08T12:09:50;96676.78;;;15.81;100.00
4598;BME280;62772;48.646;8.906;2023-05-08T12:14:50;96676.53;;;15.74;100.00
4598;BME280;62772;48.646;8.906;2023-05-08T12:19:54;96671.31;;;15.90;100.00
4598;BME280;62772;48.646;8.906;2023-05-08T12:24:56;96680.88;;;16.12;100.00
4598;BME280;62772;48.646;8.906;2023-05-08T12:29:56;96679.53;;;16.18;100.00
4598;BME280;62772;48.646;8.906;2023-05-08T12:34:57;96685.13;;;16.25;100.00
4598;BME280;62772;48.646;8.906;2023-05-08T12:39:58;96678.06;;;16.33;100.00
4598;BME280;62772;48.646;8.906;2023-05-08T12:44:58;96677.56;;;16.56;100.00
4598;BME280;62772;48.646;8.906;2023-05-08T12:49:59;96674.75;;;16.64;100.00
4598;BME280;62772;48.646;8.906;2023-05-08T12:54:59;96679.47;;;16.67;100.00
4598;BME280;62772;48.646;8.906;2023-05-08T13:00:03;96677.09;;;16.78;100.00
4598;BME280;62772;48.646;8.906;2023-05-08T13:05:04;96670.31;;;16.84;100.00
4598;BME280;62772;48.646;8.906;2023-05-08T13:10:05;96679.56;;;16.83;100.00
4598;BME280;62772;48.646;8.906;2023-05-08T13:15:07;96663.50;;;16.87;100.00
4598;BME280;62772;48.646;8.906;2023-05-08T13:20:09;96678.22;;;16.90;100.00
4598;BME280;62772;48.646;8.906;2023-05-08T13:25:10;96672.25;;;16.96;100.00
4598;BME280;62772;48.646;8.906;2023-05-08T13:30:11;96670.47;;;16.76;100.00
4598;BME280;62772;48.646;8.906;2023-05-08T13:35:12;96654.28;;;16.88;100.00
4598;BME280;62772;48.646;8.906;2023-05-08T13:40:14;96650.16;;;17.07;100.00
4598;BME280;62772;48.646;8.906;2023-05-08T13:45:14;96638.84;;;17.01;100.00
4598;BME280;62772;48.646;8.906;2023-05-08T13:50:16;96639.41;;;17.22;100.00
4598;BME280;62772;48.646;8.906;2023-05-08T13:55:18;96639.94;;;17.28;100.00
4598;BME280;62772;48.646;8.906;2023-05-08T14:00:21;96641.34;;;17.38;100.00
4598;BME280;62772;48.646;8.906;2023-05-08T14:05:21;96633.63;;;17.52;100.00
4598;BME280;62772;48.646;8.906;2023-05-08T14:10:22;96629.69;;;17.50;100.00
4598;BME280;62772;48.646;8.906;2023-05-08T14:15:22;96627.63;;;17.59;100.00
4598;BME280;62772;48.646;8.906;2023-05-08T14:20:23;96624.13;;;17.74;100.00
4598;BME280;62772;48.646;8.906;2023-05-08T14:25:23;96628.25;;;18.00;100.00
4598;BME280;62772;48.646;8.906;2023-05-08T14:30:24;96623.81;;;17.92;100.00
4598;BME280;62772;48.646;8.906;2023-05-08T14:35:24;96617.44;;;17.84;100.00
4598;BME280;62772;48.646;8.906;2023-05-08T14:40:25;96630.44;;;17.63;100.00
4598;BME280;62772;48.646;8.906;2023-05-08T14:45:25;96623.38;;;16.85;100.00
4598;BME280;62772;48.646;8.906;2023-05-08T14:50:26;96628.50;;;16.62;100.00
4598;BME280;62772;48.646;8.906;2023-05-08T14:55:27;96619.47;;;16.71;100.00
4598;BME280;62772;48.646;8.906;2023-05-08T15:00:27;96629.28;;;16.50;100.00
4598;BME280;62772;48.646;8.906;2023-05-08T15:05:28;96627.56;;;16.05;100.00
4598;BME280;62772;48.646;8.906;2023-05-08T15:10:28;96618.91;;;15.87;100.00
4598;BME280;62772;48.646;8.906;2023-05-08T15:15:29;96616.94;;;15.38;100.00
4598;BME280;62772;48.646;8.906;2023-05-08T15:20:29;96625.91;;;15.55;100.00
4598;BME280;62772;48.646;8.906;2023-05-08T15:25:30;96627.63;;;15.59;100.00
4598;BME280;62772;48.646;8.906;2023-05-08T15:30:30;96630.78;;;15.74;100.00
4598;BME280;62772;48.646;8.906;2023-05-08T15:35:31;96631.72;;;15.78;100.00
4598;BME280;62772;48.646;8.906;2023-05-08T15:40:32;96630.72;;;15.37;100.00
4598;BME280;62772;48.646;8.906;2023-05-08T15:45:33;96631.19;;;15.51;100.00
4598;BME280;62772;48.646;8.906;2023-05-08T15:50:33;96644.84;;;15.46;100.00
4598;BME280;62772;48.646;8.906;2023-05-08T15:55:34;96647.94;;;15.23;100.00
4598;BME280;62772;48.646;8.906;2023-05-08T16:00:34;96643.41;;;15.49;100.00
4598;BME280;62772;48.646;8.906;2023-05-08T16:05:35;96648.63;;;14.99;100.00
4598;BME280;62772;48.646;8.906;2023-05-08T16:10:35;96647.28;;;15.27;100.00
4598;BME280;62772;48.646;8.906;2023-05-08T16:15:36;96645.53;;;15.43;100.00
4598;BME280;62772;48.646;8.906;2023-05-08T16:20:38;96652.69;;;15.39;100.00
4598;BME280;62772;48.646;8.906;2023-05-08T16:25:39;96652.19;;;15.70;100.00
4598;BME280;62772;48.646;8.906;2023-05-08T16:30:40;96663.72;;;15.58;100.00
4598;BME280;62772;48.646;8.906;2023-05-08T16:35:40;96657.78;;;15.65;100.00
4598;BME280;62772;48.646;8.906;2023-05-08T16:40:41;96664.53;;;15.59;100.00
4598;BME280;62772;48.646;8.906;2023-05-08T16:45:42;96662.56;;;15.81;100.00
4598;BME280;62772;48.646;8.906;2023-05-08T16:50:42;96650.56;;;15.78;100.00
4598;BME280;62772;48.646;8.906;2023-05-08T16:55:43;96653.91;;;15.87;100.00
4598;BME280;62772;48.646;8.906;2023-05-08T17:00:43;96649.78;;;15.90;100.00
4598;BME280;62772;48.646;8.906;2023-05-08T17:05:43;96656.50;;;15.96;100.00
4598;BME280;62772;48.646;8.906;2023-05-08T17:10:44;96660.44;;;15.86;100.00
4598;BME280;62772;48.646;8.906;2023-05-08T17:16:03;96657.41;;;16.12;100.00
4598;BME280;62772;48.646;8.906;2023-05-08T17:21:18;96664.91;;;16.19;100.00
4598;BME280;62772;48.646;8.906;2023-05-08T17:26:18;96676.16;;;16.09;100.00
4598;BME280;62772;48.646;8.906;2023-05-08T17:31:21;96679.06;;;15.91;100.00
4598;BME280;62772;48.646;8.906;2023-05-08T17:36:21;96671.41;;;15.81;100.00
4598;BME280;62772;48.646;8.906;2023-05-08T17:41:21;96680.97;;;15.91;100.00
4598;BME280;62772;48.646;8.906;2023-05-08T17:46:22;96680.66;;;15.92;100.00
4598;BME280;62772;48.646;8.906;2023-05-08T17:51:22;96685.22;;;15.92;100.00
4598;BME280;62772;48.646;8.906;2023-05-08T17:56:23;96688.06;;;15.50;100.00
4598;BME280;62772;48.646;8.906;2023-05-08T18:01:23;96683.91;;;15.19;100.00
4598;BME280;62772;48.646;8.906;2023-05-08T18:06:25;96679.81;;;15.00;100.00
4598;BME280;62772;48.646;8.906;2023-05-08T18:11:25;96684.97;;;15.05;100.00
4598;BME280;62772;48.646;8.906;2023-05-08T18:16:26;96689.50;;;14.93;100.00
4598;BME280;62772;48.646;8.906;2023-05-08T18:21:26;96679.84;;;15.13;100.00
4598;BME280;62772;48.646;8.906;2023-05-08T18:26:28;96687.03;;;14.58;100.00
4598;BME280;62772;48.646;8.906;2023-05-08T18:31:28;96689.16;;;15.15;100.00
4598;BME280;62772;48.646;8.906;2023-05-08T18:36:29;96684.66;;;15.07;100.00
4598;BME280;62772;48.646;8.906;2023-05-08T18:41:29;96690.69;;;14.32;100.00
4598;BME280;62772;48.646;8.906;2023-05-08T18:46:30;96689.94;;;13.84;100.00
4598;BME280;62772;48.646;8.906;2023-05-08T18:51:31;96693.78;;;13.74;100.00
4598;BME280;62772;48.646;8.906;2023-05-08T18:56:31;96698.44;;;13.86;100.00
4598;BME280;62772;48.646;8.906;2023-05-08T19:01:33;96693.44;;;14.14;100.00
4598;BME280;62772;48.646;8.906;2023-05-08T19:06:34;96690.75;;;14.44;100.00
4598;BME280;62772;48.646;8.906;2023-05-08T19:11:34;96687.50;;;14.30;100.00
4598;BME280;62772;48.646;8.906;2023-05-08T19:16:35;96695.97;;;14.41;100.00
4598;BME280;62772;48.646;8.906;2023-05-08T19:21:35;96679.22;;;14.44;100.00
4598;BME280;62772;48.646;8.906;2023-05-08T19:26:36;96679.00;;;14.49;100.00
4598;BME280;62772;48.646;8.906;2023-05-08T19:31:36;96680.19;;;14.69;100.00
4598;BME280;62772;48.646;8.906;2023-05-08T19:36:37;96677.78;;;14.46;100.00
4598;BME280;62772;48.646;8.906;2023-05-08T19:41:37;96677.88;;;14.59;100.00
4598;BME280;62772;48.646;8.906;2023-05-08T19:46:38;96685.19;;;14.49;100.00
4598;BME280;62772;48.646;8.906;2023-05-08T19:51:38;96693.22;;;13.90;100.00
4598;BME280;62772;48.646;8.906;2023-05-08T19:56:39;96692.19;;;14.12;100.00
4598;BME280;62772;48.646;8.906;2023-05-08T20:01:41;96690.66;;;13.55;100.00
4598;BME280;62772;48.646;8.906;2023-05-08T20:06:43;96696.34;;;13.45;100.00
4598;BME280;62772;48.646;8.906;2023-05-08T20:11:44;96699.97;;;13.14;100.00
4598;BME280;62772;48.646;8.906;2023-05-08T20:16:45;96699.03;;;12.57;100.00
4598;BME280;62772;48.646;8.906;2023-05-08T20:21:46;96709.91;;;12.52;100.00
4598;BME280;62772;48.646;8.906;2023-05-08T20:26:47;96705.97;;;12.93;100.00
4598;BME280;62772;48.646;8.906;2023-05-08T20:31:49;96697.91;;;13.28;100.00
4598;BME280;62772;48.646;8.906;2023-05-08T20:36:50;96697.13;;;13.45;100.00
4598;BME280;62772;48.646;8.906;2023-05-08T20:41:50;96693.69;;;12.83;100.00
4598;BME280;62772;48.646;8.906;2023-05-08T20:46:51;96692.88;;;12.92;100.00
4598;BME280;62772;48.646;8.906;2023-05-08T20:51:53;96692.72;;;12.88;100.00
4598;BME280;62772;48.646;8.906;2023-05-08T20:56:53;96684.22;;;12.77;100.00
4598;BME280;62772;48.646;8.906;2023-05-08T21:01:56;96683.56;;;12.54;100.00
4598;BME280;62772;48.646;8.906;2023-05-08T21:06:57;96682.66;;;12.01;100.00
4598;BME280;62772;48.646;8.906;2023-05-08T21:11:58;96681.84;;;11.92;100.00
4598;BME280;62772;48.646;8.906;2023-05-08T21:16:59;96675.66;;;12.40;100.00
4598;BME280;62772;48.646;8.906;2023-05-08T21:22:00;96673.59;;;12.37;100.00
4598;BME280;62772;48.646;8.906;2023-05-08T21:27:00;96682.63;;;11.92;100.00
4598;BME280;62772;48.646;8.906;2023-05-08T21:32:01;96681.81;;;11.60;100.00
4598;BME280;62772;48.646;8.906;2023-05-08T21:37:01;96690.03;;;11.41;100.00
4598;BME280;62772;48.646;8.906;2023-05-08T21:42:03;96688.66;;;11.21;100.00
4598;BME280;62772;48.646;8.906;2023-05-08T21:47:04;96683.75;;;11.37;100.00
4598;BME280;62772;48.646;8.906;2023-05-08T21:52:05;96683.53;;;11.34;100.00
4598;BME280;62772;48.646;8.906;2023-05-08T21:57:05;96686.59;;;11.41;100.00
4598;BME280;62772;48.646;8.906;2023-05-08T22:02:06;96694.97;;;11.79;100.00
4598;BME280;62772;48.646;8.906;2023-05-08T22:07:07;96689.56;;;12.02;100.00
4598;BME280;62772;48.646;8.906;2023-05-08T22:12:07;96675.31;;;12.24;100.00
4598;BME280;62772;48.646;8.906;2023-05-08T22:17:08;96669.22;;;12.41;100.00
4598;BME280;62772;48.646;8.906;2023-05-08T22:22:08;96661.03;;;12.55;100.00
4598;BME280;62772;48.646;8.906;2023-05-08T22:27:09;96657.75;;;12.01;100.00
4598;BME280;62772;48.646;8.906;2023-05-08T22:32:10;96652.63;;;11.82;100.00
4598;BME280;62772;48.646;8.906;2023-05-08T22:37:10;96653.59;;;11.86;100.00
4598;BME280;62772;48.646;8.906;2023-05-08T22:42:11;96637.63;;;12.03;100.00
4598;BME280;62772;48.646;8.906;2023-05-08T22:47:12;96635.19;;;12.33;100.00
4598;BME280;62772;48.646;8.906;2023-05-08T22:52:12;96623.53;;;12.38;100.00
4598;BME280;62772;48.646;8.906;2023-05-08T22:57:13;96616.44;;;12.59;100.00
4598;BME280;62772;48.646;8.906;2023-05-08T23:02:13;96605.84;;;12.80;100.00
4598;BME280;62772;48.646;8.906;2023-05-08T23:07:14;96597.81;;;12.80;100.00
4598;BME280;62772;48.646;8.906;2023-05-08T23:12:14;96590.75;;;12.67;100.00
4598;BME280;62772;48.646;8.906;2023-05-08T23:17:15;96591.28;;;11.85;100.00
4598;BME280;62772;48.646;8.906;2023-05-08T23:22:15;96595.88;;;11.22;100.00
4598;BME280;62772;48.646;8.906;2023-05-08T23:27:16;96588.03;;;10.71;100.00
4598;BME280;62772;48.646;8.906;2023-05-08T23:32:16;96589.13;;;11.24;100.00
4598;BME280;62772;48.646;8.906;2023-05-08T23:37:17;96591.69;;;11.07;100.00
4598;BME280;62772;48.646;8.906;2023-05-08T23:42:17;96588.56;;;11.05;100.00
4598;BME280;62772;48.646;8.906;2023-05-08T23:47:19;96579.00;;;11.44;100.00
4598;BME280;62772;48.646;8.906;2023-05-08T23:52:21;96578.94;;;11.35;100.00
4598;BME280;62772;48.646;8.906;2023-05-08T23:57:22;96576.56;;;11.25;100.00
